Time;durP1;ratioP1;P1;durP2;ratioP2;P2;SDS_P1;SDS_P2;PMS_P1;PMS_P2;Temp;Humidity;BMP_temperature;BMP_pressure;BME280_temperature;BME280_humidity;BME280_pressure;Samples;Min_cycle;Max_cycle;Signal;HPM_P1;HPM_P2
2023/12/26 00:00:00;;;;;;;8.43;3.85;;;;;;;;;;4811102;29;20094;-82
2023/12/26 00:02:28;;;;;;;20.00;5.70;;;;;;;;;;4798261;29;20035;-82
2023/12/26 00:04:54;;;;;;;8.98;4.28;;;;;;;;;;4811570;29;20039;-82
2023/12/26 00:07:20;;;;;;;12.60;5.40;;;;;;;;;;4811516;29;20099;-82
2023/12/26 00:09:46;;;;;;;9.98;5.05;;;;;;;;;;4811282;29;20043;-82
2023/12/26 00:12:12;;;;;;;8.05;4.13;;;;;;;;;;4811094;29;20054;-82
2023/12/26 00:14:38;;;;;;;9.73;4.40;;;;;;;;;;4809815;29;20046;-82
2023/12/26 00:17:04;;;;;;;5.38;2.25;;;;;;;;;;4794537;29;20613;-82
2023/12/26 00:19:30;;;;;;;6.70;3.33;;;;;;;;;;4811423;29;20046;-82
2023/12/26 00:21:56;;;;;;;6.72;4.03;;;;;;;;;;4811393;29;20055;-82
2023/12/26 00:24:22;;;;;;;8.45;2.90;;;;;;;;;;4810888;29;20035;-82
2023/12/26 00:26:49;;;;;;;3.35;2.17;;;;;;;;;;4811565;29;20065;-82
2023/12/26 00:29:15;;;;;;;4.22;2.75;;;;;;;;;;4810911;29;20042;-82
2023/12/26 00:31:41;;;;;;;5.03;2.33;;;;;;;;;;4811159;29;20436;-82
2023/12/26 00:34:08;;;;;;;7.80;1.77;;;;;;;;;;4815151;29;20381;-82
2023/12/26 00:36:34;;;;;;;3.97;1.83;;;;;;;;;;4828957;29;20051;-82
2023/12/26 00:39:00;;;;;;;6.97;2.00;;;;;;;;;;4811346;29;20050;-82
2023/12/26 00:41:26;;;;;;;3.58;2.55;;;;;;;;;;4814211;29;20047;-82
2023/12/26 00:43:52;;;;;;;4.88;2.70;;;;;;;;;;4807826;29;20039;-82
2023/12/26 00:46:18;;;;;;;7.75;2.40;;;;;;;;;;4807296;29;20397;-82
2023/12/26 00:48:45;;;;;;;11.75;2.70;;;;;;;;;;4806865;29;20035;-82
2023/12/26 00:51:11;;;;;;;3.60;2.03;;;;;;;;;;4806827;29;20057;-82
2023/12/26 00:53:37;;;;;;;3.10;2.28;;;;;;;;;;4808814;29;20117;-82
2023/12/26 00:56:03;;;;;;;2.30;1.55;;;;;;;;;;4808169;29;20124;-82
2023/12/26 00:58:29;;;;;;;2.83;1.55;;;;;;;;;;4808089;29;20126;-82
2023/12/26 01:00:55;;;;;;;5.72;2.60;;;;;;;;;;4808254;29;20138;-82
2023/12/26 01:03:22;;;;;;;4.40;2.22;;;;;;;;;;4807897;29;20502;-82
2023/12/26 01:05:51;;;;;;;4.05;2.45;;;;;;;;;;4807868;29;20046;-82
2023/12/26 01:08:20;;;;;;;5.00;2.28;;;;;;;;;;4806897;29;20038;-82
2023/12/26 01:10:46;;;;;;;2.05;1.17;;;;;;;;;;4806728;29;20061;-82
2023/12/26 01:13:12;;;;;;;9.35;3.03;;;;;;;;;;4804857;29;20065;-82
2023/12/26 01:15:39;;;;;;;17.30;5.78;;;;;;;;;;4802570;29;20557;-82
2023/12/26 01:18:05;;;;;;;19.15;6.72;;;;;;;;;;4804875;29;20066;-82
2023/12/26 01:20:32;;;;;;;16.63;4.60;;;;;;;;;;4800606;29;20050;-82
2023/12/26 01:22:58;;;;;;;12.25;4.15;;;;;;;;;;4795284;29;20040;-82
2023/12/26 01:25:24;;;;;;;14.90;4.38;;;;;;;;;;4803789;29;20047;-82
2023/12/26 01:27:50;;;;;;;6.00;3.72;;;;;;;;;;4811247;29;20864;-82
2023/12/26 01:30:16;;;;;;;9.13;3.40;;;;;;;;;;4807204;29;20043;-82
2023/12/26 01:32:42;;;;;;;8.77;2.10;;;;;;;;;;4809461;29;20043;-82
2023/12/26 01:35:08;;;;;;;3.88;2.40;;;;;;;;;;4814919;29;20043;-82
2023/12/26 01:37:34;;;;;;;5.93;1.90;;;;;;;;;;4790899;29;20501;-82
2023/12/26 01:40:00;;;;;;;1.40;1.00;;;;;;;;;;4808977;29;20046;-82
2023/12/26 01:42:26;;;;;;;2.83;1.58;;;;;;;;;;4820946;29;20049;-82
2023/12/26 01:44:52;;;;;;;5.07;1.35;;;;;;;;;;4806843;29;20092;-82
2023/12/26 01:47:18;;;;;;;2.47;1.27;;;;;;;;;;4805998;29;20054;-82
2023/12/26 01:49:45;;;;;;;3.00;1.38;;;;;;;;;;4806689;29;20642;-82
2023/12/26 01:52:13;;;;;;;4.95;2.65;;;;;;;;;;4817090;29;20121;-82
2023/12/26 01:54:39;;;;;;;4.47;2.70;;;;;;;;;;4808235;29;20053;-82
2023/12/26 01:57:08;;;;;;;3.38;1.77;;;;;;;;;;4807349;29;20466;-82
2023/12/26 01:59:36;;;;;;;1.98;1.02;;;;;;;;;;4790498;29;20115;-82
2023/12/26 02:02:02;;;;;;;4.18;1.77;;;;;;;;;;4805344;29;20440;-83
2023/12/26 02:04:29;;;;;;;4.43;1.40;;;;;;;;;;4804972;29;20047;-82
2023/12/26 02:06:57;;;;;;;3.20;1.10;;;;;;;;;;4806705;29;20047;-82
2023/12/26 02:09:24;;;;;;;2.58;0.93;;;;;;;;;;4805617;29;20367;-82
2023/12/26 02:11:51;;;;;;;10.23;1.58;;;;;;;;;;4804040;29;20632;-82
2023/12/26 02:14:18;;;;;;;4.57;0.63;;;;;;;;;;4806954;29;20039;-82
2023/12/26 02:16:44;;;;;;;3.47;0.63;;;;;;;;;;4805404;29;20050;-82
2023/12/26 02:19:10;;;;;;;4.55;2.03;;;;;;;;;;4806766;29;20043;-82
2023/12/26 02:21:36;;;;;;;8.98;2.30;;;;;;;;;;4806545;29;20074;-82
2023/12/26 02:24:02;;;;;;;7.82;2.58;;;;;;;;;;4806509;29;20516;-82
2023/12/26 02:26:28;;;;;;;5.43;2.58;;;;;;;;;;4806271;29;20061;-82
2023/12/26 02:28:55;;;;;;;2.90;1.60;;;;;;;;;;4790098;29;20074;-82
2023/12/26 02:31:22;;;;;;;3.80;1.30;;;;;;;;;;4806202;29;20043;-82
2023/12/26 02:33:48;;;;;;;3.47;1.05;;;;;;;;;;4789910;29;20406;-82
2023/12/26 02:36:14;;;;;;;2.55;1.58;;;;;;;;;;4812897;29;20045;-82
2023/12/26 02:38:41;;;;;;;3.25;2.22;;;;;;;;;;4807105;29;20042;-82
2023/12/26 02:41:07;;;;;;;2.90;0.70;;;;;;;;;;4805700;29;20046;-82
2023/12/26 02:43:33;;;;;;;4.13;0.65;;;;;;;;;;4806476;29;20111;-82
2023/12/26 02:45:59;;;;;;;1.42;0.40;;;;;;;;;;4799433;29;20039;-82
2023/12/26 02:48:25;;;;;;;1.25;0.90;;;;;;;;;;4806073;29;20143;-82
2023/12/26 02:50:53;;;;;;;1.13;0.55;;;;;;;;;;4805798;29;20130;-82
2023/12/26 02:53:19;;;;;;;0.50;0.50;;;;;;;;;;4789435;29;20051;-82
2023/12/26 02:55:45;;;;;;;1.38;0.90;;;;;;;;;;4815109;29;20496;-82
2023/12/26 02:58:11;;;;;;;1.08;0.52;;;;;;;;;;4815416;29;20047;-82
2023/12/26 03:00:37;;;;;;;1.30;0.60;;;;;;;;;;4805553;29;20039;-82
2023/12/26 03:03:03;;;;;;;0.90;0.75;;;;;;;;;;4805573;29;20047;-82
2023/12/26 03:05:29;;;;;;;0.30;0.25;;;;;;;;;;4805760;29;20051;-82
2023/12/26 03:07:55;;;;;;;0.95;0.28;;;;;;;;;;4803821;29;20042;-82
2023/12/26 03:10:21;;;;;;;1.08;0.32;;;;;;;;;;4805204;29;20520;-82
2023/12/26 03:12:47;;;;;;;0.68;0.63;;;;;;;;;;4789350;29;20121;-82
2023/12/26 03:15:14;;;;;;;0.52;0.30;;;;;;;;;;4803825;29;20129;-82
2023/12/26 03:17:40;;;;;;;0.75;0.40;;;;;;;;;;4806177;29;20660;-82
2023/12/26 03:20:06;;;;;;;1.38;0.57;;;;;;;;;;4804614;29;20122;-82
2023/12/26 03:22:32;;;;;;;4.25;2.22;;;;;;;;;;4805110;29;20501;-82
2023/12/26 03:24:58;;;;;;;2.45;1.40;;;;;;;;;;4805753;29;20042;-82
2023/12/26 03:27:24;;;;;;;2.03;1.33;;;;;;;;;;4789304;29;20076;-82
2023/12/26 03:29:50;;;;;;;2.38;1.20;;;;;;;;;;4805998;29;20038;-82
2023/12/26 03:32:20;;;;;;;3.67;1.42;;;;;;;;;;4812422;29;20549;-82
2023/12/26 03:34:46;;;;;;;3.03;1.20;;;;;;;;;;4805046;29;20043;-82
2023/12/26 03:37:13;;;;;;;2.75;1.02;;;;;;;;;;4804593;29;20101;-82
2023/12/26 03:39:41;;;;;;;3.95;1.65;;;;;;;;;;4800930;29;20051;-82
2023/12/26 03:42:07;;;;;;;3.08;1.02;;;;;;;;;;4798881;29;20043;-82
2023/12/26 03:44:33;;;;;;;2.15;0.80;;;;;;;;;;4808022;29;20110;-82
2023/12/26 03:46:59;;;;;;;1.75;0.90;;;;;;;;;;4798661;29;20486;-82
2023/12/26 03:49:25;;;;;;;1.40;0.75;;;;;;;;;;4789091;29;20043;-82
2023/12/26 03:51:51;;;;;;;2.78;0.40;;;;;;;;;;4805386;29;20723;-82
2023/12/26 03:54:18;;;;;;;0.65;0.50;;;;;;;;;;4805277;29;20085;-82
2023/12/26 03:56:44;;;;;;;2.10;0.73;;;;;;;;;;4804279;29;20046;-82
2023/12/26 03:59:10;;;;;;;4.00;1.58;;;;;;;;;;4804928;29;20070;-82
2023/12/26 04:01:36;;;;;;;12.30;3.33;;;;;;;;;;4805357;29;20458;-82
2023/12/26 04:04:03;;;;;;;3.60;1.60;;;;;;;;;;4803263;29;20081;-82
2023/12/26 04:06:29;;;;;;;5.82;2.40;;;;;;;;;;4805499;29;20050;-82
2023/12/26 04:08:55;;;;;;;0.98;0.82;;;;;;;;;;4804863;29;20058;-82
2023/12/26 04:11:21;;;;;;;4.63;1.67;;;;;;;;;;4805229;29;20402;-82
2023/12/26 04:13:47;;;;;;;1.70;0.65;;;;;;;;;;4805064;29;20046;-82
2023/12/26 04:16:13;;;;;;;2.75;1.23;;;;;;;;;;4813340;29;20053;-82
2023/12/26 04:18:39;;;;;;;1.30;0.88;;;;;;;;;;4790386;29;20070;-82
2023/12/26 04:21:05;;;;;;;1.30;0.90;;;;;;;;;;4808566;29;20081;-83
2023/12/26 04:23:31;;;;;;;1.80;0.82;;;;;;;;;;4787020;29;20071;-83
2023/12/26 04:25:57;;;;;;;3.30;1.23;;;;;;;;;;4808789;29;20070;-82
2023/12/26 04:28:23;;;;;;;0.82;0.30;;;;;;;;;;4812347;29;20121;-82
2023/12/26 04:30:49;;;;;;;1.63;0.90;;;;;;;;;;4810480;29;20051;-82
2023/12/26 04:33:15;;;;;;;3.05;0.90;;;;;;;;;;4808086;29;20051;-82
2023/12/26 04:35:41;;;;;;;1.75;0.70;;;;;;;;;;4807254;29;20061;-82
2023/12/26 04:38:07;;;;;;;1.17;0.80;;;;;;;;;;4803220;29;20054;-83
2023/12/26 04:40:33;;;;;;;6.55;1.50;;;;;;;;;;4803577;29;20046;-82
2023/12/26 04:43:02;;;;;;;1.45;1.02;;;;;;;;;;4807878;29;20043;-82
2023/12/26 04:45:28;;;;;;;3.60;0.65;;;;;;;;;;4807597;29;20035;-82
2023/12/26 04:47:54;;;;;;;1.92;0.77;;;;;;;;;;4807775;29;20043;-82
2023/12/26 04:50:20;;;;;;;2.50;0.95;;;;;;;;;;4802473;29;20053;-82
2023/12/26 04:52:46;;;;;;;4.55;0.93;;;;;;;;;;4791532;29;20051;-82
2023/12/26 04:55:12;;;;;;;2.03;1.00;;;;;;;;;;4807080;29;20031;-82
2023/12/26 04:57:39;;;;;;;2.55;0.73;;;;;;;;;;4791117;29;20042;-82
2023/12/26 05:00:05;;;;;;;0.85;0.50;;;;;;;;;;4810656;29;20034;-82
2023/12/26 05:02:31;;;;;;;9.38;1.50;;;;;;;;;;4805952;29;20051;-82
2023/12/26 05:04:57;;;;;;;2.05;0.98;;;;;;;;;;4794746;29;20050;-82
2023/12/26 05:07:23;;;;;;;6.20;0.50;;;;;;;;;;4807669;29;20126;-82
2023/12/26 05:09:49;;;;;;;2.85;1.05;;;;;;;;;;4806958;29;20049;-83
2023/12/26 05:12:15;;;;;;;1.27;0.70;;;;;;;;;;4807383;29;20066;-82
2023/12/26 05:14:41;;;;;;;3.20;0.73;;;;;;;;;;4805807;29;20080;-82
2023/12/26 05:17:07;;;;;;;1.90;0.47;;;;;;;;;;4807220;29;20055;-82
2023/12/26 05:19:33;;;;;;;3.70;0.60;;;;;;;;;;4807690;29;20039;-82
2023/12/26 05:21:59;;;;;;;1.98;1.10;;;;;;;;;;4811776;29;20509;-82
2023/12/26 05:24:25;;;;;;;3.13;1.48;;;;;;;;;;4789947;29;20039;-82
2023/12/26 05:26:51;;;;;;;0.73;0.40;;;;;;;;;;4807058;29;20489;-82
2023/12/26 05:29:17;;;;;;;1.90;0.75;;;;;;;;;;4807105;29;20035;-82
2023/12/26 05:31:43;;;;;;;1.38;0.98;;;;;;;;;;4790952;29;20051;-82
2023/12/26 05:34:09;;;;;;;1.25;0.93;;;;;;;;;;4805767;29;20081;-82
2023/12/26 05:36:36;;;;;;;1.55;0.63;;;;;;;;;;4790727;29;20059;-82
2023/12/26 05:39:02;;;;;;;2.70;1.23;;;;;;;;;;4805676;29;20734;-82
2023/12/26 05:41:28;;;;;;;0.57;0.28;;;;;;;;;;4806743;29;20053;-83
2023/12/26 05:43:54;;;;;;;4.10;1.20;;;;;;;;;;4805055;29;20035;-83
2023/12/26 05:46:22;;;;;;;3.97;0.98;;;;;;;;;;4790662;29;20046;-82
2023/12/26 05:48:48;;;;;;;0.70;0.32;;;;;;;;;;4806929;29;20038;-82
2023/12/26 05:51:14;;;;;;;2.05;1.13;;;;;;;;;;4792721;29;20788;-81
2023/12/26 05:53:40;;;;;;;1.40;0.70;;;;;;;;;;4805390;29;20435;-82
2023/12/26 05:56:06;;;;;;;4.32;1.60;;;;;;;;;;4782790;30;20047;-82
2023/12/26 05:58:32;;;;;;;3.55;0.52;;;;;;;;;;4802929;29;20691;-83
2023/12/26 06:00:58;;;;;;;1.92;0.60;;;;;;;;;;4806669;29;20087;-83
2023/12/26 06:03:24;;;;;;;4.20;0.68;;;;;;;;;;4804420;29;20039;-82
2023/12/26 06:05:50;;;;;;;1.08;0.50;;;;;;;;;;4805127;29;20162;-82
2023/12/26 06:08:17;;;;;;;1.13;0.60;;;;;;;;;;4790948;29;20043;-82
2023/12/26 06:10:43;;;;;;;1.50;0.75;;;;;;;;;;4806261;29;20078;-82
2023/12/26 06:13:10;;;;;;;8.63;0.90;;;;;;;;;;4806682;29;20050;-82
2023/12/26 06:15:36;;;;;;;0.77;0.32;;;;;;;;;;4813401;29;20047;-82
2023/12/26 06:18:02;;;;;;;1.50;0.73;;;;;;;;;;4806066;29;20798;-82
2023/12/26 06:20:28;;;;;;;1.70;1.05;;;;;;;;;;4810800;29;20073;-82
2023/12/26 06:22:54;;;;;;;3.63;0.70;;;;;;;;;;4793640;29;20035;-82
2023/12/26 06:25:20;;;;;;;0.70;0.30;;;;;;;;;;4790310;29;20554;-82
2023/12/26 06:27:46;;;;;;;1.85;0.82;;;;;;;;;;4794723;29;20050;-82
2023/12/26 06:30:12;;;;;;;3.55;0.38;;;;;;;;;;4806060;29;20042;-82
2023/12/26 06:32:38;;;;;;;2.90;0.70;;;;;;;;;;4805987;29;20050;-82
2023/12/26 06:35:05;;;;;;;2.08;0.90;;;;;;;;;;4802325;29;20164;-81
2023/12/26 06:37:31;;;;;;;0.60;0.50;;;;;;;;;;4794916;29;20130;-81
2023/12/26 06:39:57;;;;;;;2.13;0.77;;;;;;;;;;4805910;29;20499;-81
2023/12/26 06:42:23;;;;;;;1.58;0.55;;;;;;;;;;4805637;29;20038;-81
2023/12/26 06:44:49;;;;;;;1.75;0.63;;;;;;;;;;4806200;29;20062;-82
2023/12/26 06:47:15;;;;;;;3.28;1.38;;;;;;;;;;4806242;29;20486;-81
2023/12/26 06:49:45;;;;;;;2.95;1.23;;;;;;;;;;4806043;29;20047;-82
2023/12/26 06:52:16;;;;;;;1.48;0.68;;;;;;;;;;4806210;29;20122;-81
2023/12/26 06:54:43;;;;;;;1.40;1.08;;;;;;;;;;4805982;29;20485;-81
2023/12/26 06:57:15;;;;;;;1.38;0.73;;;;;;;;;;4806209;29;20047;-81
2023/12/26 06:59:53;;;;;;;1.63;0.70;;;;;;;;;;4805703;29;20043;-81
2023/12/26 07:02:19;;;;;;;0.73;0.50;;;;;;;;;;4805898;29;20485;-81
2023/12/26 07:04:45;;;;;;;1.40;0.93;;;;;;;;;;4803887;29;20047;-82
2023/12/26 07:07:11;;;;;;;3.05;0.85;;;;;;;;;;4805782;29;20058;-81
2023/12/26 07:09:37;;;;;;;1.65;0.95;;;;;;;;;;4805200;29;20125;-82
2023/12/26 07:12:03;;;;;;;2.42;0.82;;;;;;;;;;4804424;29;20425;-82
2023/12/26 07:14:30;;;;;;;0.73;0.47;;;;;;;;;;4808328;29;20486;-81
2023/12/26 07:16:56;;;;;;;2.40;0.50;;;;;;;;;;4809122;29;20046;-81
2023/12/26 07:19:22;;;;;;;9.90;1.77;;;;;;;;;;4803729;29;20062;-81
2023/12/26 07:21:48;;;;;;;0.90;0.60;;;;;;;;;;4805790;29;20461;-81
2023/12/26 07:24:14;;;;;;;1.38;0.82;;;;;;;;;;4805440;29;20048;-81
2023/12/26 07:26:40;;;;;;;13.20;1.10;;;;;;;;;;4805604;29;20133;-81
2023/12/26 07:29:06;;;;;;;1.77;1.05;;;;;;;;;;4788453;29;20085;-81
2023/12/26 07:31:32;;;;;;;1.42;0.95;;;;;;;;;;4805284;29;20054;-81
2023/12/26 07:34:02;;;;;;;3.88;1.08;;;;;;;;;;4804785;29;20053;-81
2023/12/26 07:36:28;;;;;;;1.85;1.15;;;;;;;;;;4803642;29;20058;-82
2023/12/26 07:38:54;;;;;;;9.50;1.67;;;;;;;;;;4804744;29;20046;-82
2023/12/26 07:41:21;;;;;;;3.08;0.70;;;;;;;;;;4805634;29;20051;-81
2023/12/26 07:43:47;;;;;;;2.15;1.08;;;;;;;;;;4788609;29;20071;-82
2023/12/26 07:46:14;;;;;;;3.05;0.70;;;;;;;;;;4789237;29;20520;-81
2023/12/26 07:48:40;;;;;;;2.38;0.85;;;;;;;;;;4804986;29;20039;-81
2023/12/26 07:51:10;;;;;;;9.77;2.13;;;;;;;;;;4805702;29;20047;-81
2023/12/26 07:53:36;;;;;;;3.28;1.42;;;;;;;;;;4807447;29;20366;-81
2023/12/26 07:56:02;;;;;;;3.42;1.85;;;;;;;;;;4809130;29;20047;-81
2023/12/26 07:58:28;;;;;;;6.40;2.17;;;;;;;;;;4809226;29;20211;-82
2023/12/26 08:00:54;;;;;;;4.53;1.23;;;;;;;;;;4807496;29;20129;-81
2023/12/26 08:03:20;;;;;;;7.28;1.88;;;;;;;;;;4816419;29;20489;-82
2023/12/26 08:05:46;;;;;;;5.47;1.83;;;;;;;;;;4808966;29;20126;-82
2023/12/26 08:08:12;;;;;;;3.80;1.50;;;;;;;;;;4791884;29;20134;-81
2023/12/26 08:10:38;;;;;;;1.95;1.35;;;;;;;;;;4808070;29;20126;-81
2023/12/26 08:13:04;;;;;;;2.85;1.88;;;;;;;;;;4789236;29;20598;-82
2023/12/26 08:15:31;;;;;;;5.10;1.65;;;;;;;;;;4808244;29;20057;-81
2023/12/26 08:17:57;;;;;;;3.22;0.80;;;;;;;;;;4806920;29;20055;-81
2023/12/26 08:20:23;;;;;;;2.58;1.08;;;;;;;;;;4805094;29;20040;-81
2023/12/26 08:22:49;;;;;;;2.35;1.20;;;;;;;;;;4817060;29;20501;-81
2023/12/26 08:25:16;;;;;;;2.63;1.33;;;;;;;;;;4801309;29;20525;-81
2023/12/26 08:27:41;;;;;;;1.52;1.02;;;;;;;;;;4807358;29;20146;-81
2023/12/26 08:30:08;;;;;;;4.32;1.70;;;;;;;;;;4807270;29;20569;-81
2023/12/26 08:32:34;;;;;;;4.00;2.05;;;;;;;;;;4790946;29;20050;-81
2023/12/26 08:35:01;;;;;;;7.28;0.90;;;;;;;;;;4792141;29;20070;-81
2023/12/26 08:37:27;;;;;;;3.25;1.00;;;;;;;;;;4804070;29;20059;-81
2023/12/26 08:39:53;;;;;;;4.80;1.25;;;;;;;;;;4791900;29;20546;-81
2023/12/26 08:42:20;;;;;;;3.25;1.35;;;;;;;;;;4808903;29;20416;-81
2023/12/26 08:44:46;;;;;;;2.72;1.58;;;;;;;;;;4807662;29;20030;-81
2023/12/26 08:47:12;;;;;;;2.30;1.35;;;;;;;;;;4806804;29;20453;-81
2023/12/26 08:49:38;;;;;;;1.27;0.82;;;;;;;;;;4808919;29;20054;-81
2023/12/26 08:52:04;;;;;;;4.07;1.23;;;;;;;;;;4808739;29;20493;-81
2023/12/26 08:54:30;;;;;;;3.15;1.23;;;;;;;;;;4808239;29;20120;-81
2023/12/26 08:56:56;;;;;;;3.88;1.23;;;;;;;;;;4793790;29;20052;-81
2023/12/26 08:59:22;;;;;;;2.17;1.13;;;;;;;;;;4805814;29;20419;-81
2023/12/26 09:01:48;;;;;;;1.88;1.35;;;;;;;;;;4811486;29;20047;-81
2023/12/26 09:04:14;;;;;;;2.30;1.05;;;;;;;;;;4806608;29;20050;-82
2023/12/26 09:06:41;;;;;;;3.17;1.20;;;;;;;;;;4806231;29;20417;-81
2023/12/26 09:09:07;;;;;;;6.05;2.17;;;;;;;;;;4807763;29;20112;-81
2023/12/26 09:11:33;;;;;;;4.05;1.92;;;;;;;;;;4790834;29;20061;-81
2023/12/26 09:13:59;;;;;;;7.85;3.72;;;;;;;;;;4807089;29;20489;-81
2023/12/26 09:16:25;;;;;;;8.68;3.80;;;;;;;;;;4807066;29;20055;-81
2023/12/26 09:18:51;;;;;;;11.20;4.85;;;;;;;;;;4791181;29;20051;-81
2023/12/26 09:21:17;;;;;;;9.00;3.58;;;;;;;;;;4809435;29;20126;-81
2023/12/26 09:23:43;;;;;;;12.18;3.28;;;;;;;;;;4807082;29;20138;-81
2023/12/26 09:26:09;;;;;;;11.15;4.60;;;;;;;;;;4807573;29;20051;-81
2023/12/26 09:28:35;;;;;;;10.60;3.78;;;;;;;;;;4807348;29;20046;-81
2023/12/26 09:31:01;;;;;;;4.47;2.50;;;;;;;;;;4807298;29;20054;-81
2023/12/26 09:33:27;;;;;;;6.65;2.50;;;;;;;;;;4811288;29;20047;-81
2023/12/26 09:35:53;;;;;;;6.57;3.85;;;;;;;;;;4821494;29;20477;-81
2023/12/26 09:38:19;;;;;;;5.55;2.58;;;;;;;;;;4790773;29;20050;-81
2023/12/26 09:40:46;;;;;;;6.05;2.35;;;;;;;;;;4790567;29;20160;-81
2023/12/26 09:43:14;;;;;;;5.95;1.95;;;;;;;;;;4795621;29;20488;-81
2023/12/26 09:45:41;;;;;;;4.60;2.10;;;;;;;;;;4804814;29;20046;-81
2023/12/26 09:48:07;;;;;;;2.85;1.70;;;;;;;;;;4806127;29;20489;-81
2023/12/26 09:50:33;;;;;;;2.70;1.83;;;;;;;;;;4790124;29;20050;-82
2023/12/26 09:53:00;;;;;;;6.55;1.90;;;;;;;;;;4789774;29;20542;-81
2023/12/26 09:55:29;;;;;;;3.20;0.98;;;;;;;;;;4806195;29;20035;-82
2023/12/26 09:57:58;;;;;;;1.35;0.85;;;;;;;;;;4794174;29;20146;-82
2023/12/26 10:00:27;;;;;;;2.35;1.48;;;;;;;;;;4806105;29;20115;-82
2023/12/26 10:02:54;;;;;;;2.60;1.10;;;;;;;;;;4796592;29;20474;-82
2023/12/26 10:05:20;;;;;;;3.00;1.67;;;;;;;;;;4807177;29;20494;-81
2023/12/26 10:07:49;;;;;;;1.70;1.38;;;;;;;;;;4805647;29;20050;-83
2023/12/26 10:10:19;;;;;;;2.42;1.40;;;;;;;;;;4800209;29;20050;-82
2023/12/26 10:12:46;;;;;;;2.13;0.95;;;;;;;;;;4794852;29;20059;-80
2023/12/26 10:15:12;;;;;;;2.45;1.48;;;;;;;;;;4802355;29;20092;-82
2023/12/26 10:17:41;;;;;;;1.85;0.88;;;;;;;;;;4788661;29;20054;-83
2023/12/26 10:20:07;;;;;;;5.22;2.22;;;;;;;;;;4803286;29;20031;-82
2023/12/26 10:22:33;;;;;;;4.75;1.58;;;;;;;;;;4788433;29;20046;-80
2023/12/26 10:25:00;;;;;;;4.18;1.65;;;;;;;;;;4808220;29;20406;-83
2023/12/26 10:27:26;;;;;;;2.63;1.58;;;;;;;;;;4799665;29;20138;-83
2023/12/26 10:29:55;;;;;;;2.53;1.35;;;;;;;;;;4808132;29;20039;-83
2023/12/26 10:32:25;;;;;;;4.57;2.08;;;;;;;;;;4787518;29;20062;-83
2023/12/26 10:34:51;;;;;;;2.63;1.73;;;;;;;;;;4786881;29;20191;-82
2023/12/26 10:37:24;;;;;;;1.55;0.75;;;;;;;;;;4803546;29;20055;-83
2023/12/26 10:39:51;;;;;;;3.72;1.40;;;;;;;;;;4784055;29;20054;-83
2023/12/26 10:42:20;;;;;;;9.20;2.58;;;;;;;;;;4803790;29;20054;-82
2023/12/26 10:45:05;;;;;;;2.53;1.65;;;;;;;;;;4804541;29;20042;-81
2023/12/26 10:47:31;;;;;;;1.92;0.95;;;;;;;;;;4811043;29;20638;-83
2023/12/26 10:50:01;;;;;;;4.03;1.05;;;;;;;;;;4804949;29;20070;-84
2023/12/26 10:52:28;;;;;;;1.83;1.08;;;;;;;;;;4804178;29;20062;-83
2023/12/26 10:54:58;;;;;;;1.58;0.50;;;;;;;;;;4801310;29;20039;-83
2023/12/26 10:57:25;;;;;;;0.75;0.40;;;;;;;;;;4800611;29;20058;-83
2023/12/26 13:53:17;;;;;;;8.55;4.50;;;;;;;;;;4804054;29;20092;-84
2023/12/26 13:55:44;;;;;;;8.00;4.07;;;;;;;;;;4793659;29;20668;-83
2023/12/26 13:58:13;;;;;;;7.85;2.60;;;;;;;;;;4791026;29;20137;-89
2023/12/26 14:00:39;;;;;;;14.25;3.63;;;;;;;;;;4779355;29;20047;-83
2023/12/26 14:03:05;;;;;;;5.80;2.15;;;;;;;;;;4803264;29;20517;-81
2023/12/26 14:05:31;;;;;;;3.95;1.55;;;;;;;;;;4806394;29;20078;-82
2023/12/26 14:07:57;;;;;;;3.58;1.20;;;;;;;;;;4805463;29;20050;-85
2023/12/26 14:10:24;;;;;;;8.02;4.45;;;;;;;;;;4796003;29;20137;-85
2023/12/26 14:12:50;;;;;;;12.85;5.75;;;;;;;;;;4784748;30;20051;-86
2023/12/26 14:15:16;;;;;;;20.80;7.30;;;;;;;;;;4781714;29;20052;-85
2023/12/26 14:17:42;;;;;;;6.57;4.65;;;;;;;;;;4790335;29;20059;-85
2023/12/26 14:20:08;;;;;;;8.02;4.03;;;;;;;;;;4795256;29;20740;-85
2023/12/26 14:22:34;;;;;;;4.50;2.67;;;;;;;;;;4792614;29;20051;-85
2023/12/26 14:25:00;;;;;;;9.32;3.15;;;;;;;;;;4777202;30;20042;-85
2023/12/26 14:27:26;;;;;;;9.95;1.65;;;;;;;;;;4801414;29;20042;-84
2023/12/26 14:29:52;;;;;;;6.20;2.17;;;;;;;;;;4804567;29;20043;-85
2023/12/26 14:32:18;;;;;;;5.40;3.40;;;;;;;;;;4787814;29;20046;-86
2023/12/26 14:34:47;;;;;;;4.15;2.03;;;;;;;;;;4810544;29;20057;-84
2023/12/26 14:37:15;;;;;;;2.70;1.73;;;;;;;;;;4807993;29;20475;-82
2023/12/26 14:39:41;;;;;;;4.57;2.75;;;;;;;;;;4784789;30;20047;-82
2023/12/26 14:42:07;;;;;;;7.03;3.95;;;;;;;;;;4813006;29;20430;-81
2023/12/26 14:44:33;;;;;;;8.00;3.97;;;;;;;;;;4804460;29;20045;-81
2023/12/26 14:46:59;;;;;;;5.22;3.42;;;;;;;;;;4811784;29;20039;-82
2023/12/26 14:49:25;;;;;;;12.75;5.75;;;;;;;;;;4804297;29;20042;-82
2023/12/26 14:51:51;;;;;;;12.07;7.35;;;;;;;;;;4788267;29;20100;-83
2023/12/26 14:54:17;;;;;;;19.48;9.30;;;;;;;;;;4796910;29;20055;-83
2023/12/26 14:56:43;;;;;;;14.80;7.68;;;;;;;;;;4798021;29;20086;-85
2023/12/26 14:59:09;;;;;;;10.80;5.80;;;;;;;;;;4804054;29;20074;-85
2023/12/26 15:01:35;;;;;;;9.85;4.60;;;;;;;;;;4786120;29;20047;-80
2023/12/26 15:04:01;;;;;;;13.23;5.30;;;;;;;;;;4803981;29;20049;-84
2023/12/26 15:06:50;;;;;;;3.88;2.63;;;;;;;;;;4788541;29;20428;-83
2023/12/26 15:09:19;;;;;;;6.65;3.65;;;;;;;;;;4797434;29;20043;-80
2023/12/26 15:12:28;;;;;;;;;;;;;;;;;;;;;
2023/12/26 15:15:17;;;;;;;7.05;2.25;;;;;;;;;;4759679;29;20057;-82
2023/12/26 15:17:43;;;;;;;5.57;2.58;;;;;;;;;;4796580;29;20042;-82
2023/12/26 15:20:10;;;;;;;3.33;2.15;;;;;;;;;;4789828;29;20437;-80
2023/12/26 15:22:36;;;;;;;3.30;1.23;;;;;;;;;;4800626;29;20157;-81
2023/12/26 15:30:51;;;;;;;6.97;2.17;;;;;;;;;;4806104;29;20055;-85
2023/12/26 15:36:05;;;;;;;4.30;2.03;;;;;;;;;;4840425;24;20061;-84
2023/12/26 15:38:34;;;;;;;3.00;1.63;;;;;;;;;;4818342;29;20055;-81
2023/12/26 15:41:32;;;;;;;6.68;1.88;;;;;;;;;;4820598;29;20145;-82
2023/12/26 15:44:01;;;;;;;9.25;2.28;;;;;;;;;;4809955;29;20050;-82
2023/12/26 15:46:28;;;;;;;6.65;3.13;;;;;;;;;;4830919;29;20038;-81
2023/12/26 15:49:04;;;;;;;6.32;2.85;;;;;;;;;;4817980;29;20928;-82
2023/12/26 15:51:33;;;;;;;5.10;2.38;;;;;;;;;;4820627;29;20050;-83
2023/12/26 15:54:00;;;;;;;2.78;1.52;;;;;;;;;;4822866;29;20057;-81
2023/12/26 15:56:29;;;;;;;6.05;3.60;;;;;;;;;;4819612;29;20421;-81
2023/12/26 15:58:55;;;;;;;6.22;3.20;;;;;;;;;;4810146;29;20043;-80
2023/12/26 16:01:21;;;;;;;8.93;2.88;;;;;;;;;;4827103;29;20047;-81
2023/12/26 16:03:51;;;;;;;6.13;2.78;;;;;;;;;;4825813;29;20038;-82
2023/12/26 16:06:18;;;;;;;8.57;3.75;;;;;;;;;;4811861;29;20154;-84
2023/12/26 16:08:55;;;;;;;5.60;3.33;;;;;;;;;;4831135;29;20133;-81
2023/12/26 16:11:21;;;;;;;33.85;2.20;;;;;;;;;;4824688;29;20526;-80
2023/12/26 16:13:47;;;;;;;5.22;2.40;;;;;;;;;;4825816;29;20489;-81
2023/12/26 16:16:14;;;;;;;5.82;2.95;;;;;;;;;;4826696;29;20081;-80
2023/12/26 16:18:49;;;;;;;5.90;2.17;;;;;;;;;;4824267;29;20129;-80
2023/12/26 16:21:15;;;;;;;4.60;2.47;;;;;;;;;;4829469;29;20067;-80
2023/12/26 16:23:41;;;;;;;9.13;3.45;;;;;;;;;;4821752;29;20042;-80
2023/12/26 16:26:07;;;;;;;2.45;1.77;;;;;;;;;;4813368;29;20046;-79
2023/12/26 16:28:34;;;;;;;5.15;1.95;;;;;;;;;;4819985;29;20473;-83
2023/12/26 16:31:04;;;;;;;4.85;3.30;;;;;;;;;;4814817;29;20074;-83
2023/12/26 16:33:30;;;;;;;4.57;2.50;;;;;;;;;;4832059;29;20054;-83
2023/12/26 16:35:56;;;;;;;3.78;1.80;;;;;;;;;;4830405;29;20099;-82
2023/12/26 16:38:25;;;;;;;4.70;2.22;;;;;;;;;;4830118;29;20038;-81
2023/12/26 16:40:52;;;;;;;7.40;2.60;;;;;;;;;;4825427;29;20050;-81
2023/12/26 16:43:18;;;;;;;27.60;9.80;;;;;;;;;;4827373;29;20043;-81
2023/12/26 16:45:44;;;;;;;22.45;11.50;;;;;;;;;;4819796;29;20117;-78
2023/12/26 16:48:12;;;;;;;21.75;9.20;;;;;;;;;;4829264;29;20114;-79
2023/12/26 16:50:38;;;;;;;12.18;4.10;;;;;;;;;;4830035;29;20069;-80
2023/12/26 16:53:04;;;;;;;7.63;3.53;;;;;;;;;;4823142;29;20046;-80
2023/12/26 16:59:07;;;;;;;10.10;2.90;;;;;;;;;;4748774;30;20104;-83
2023/12/26 17:07:49;;;;;;;9.10;4.55;;;;;;;;;;4681932;30;20059;-82
2023/12/26 17:10:23;;;;;;;9.68;3.67;;;;;;;;;;4802988;29;20046;-82
2023/12/26 17:13:53;;;;;;;7.97;3.95;;;;;;;;;;4838212;29;20075;-84
2023/12/26 17:25:47;;;;;;;5.82;3.33;;;;;;;;;;4747956;30;20236;-83
2023/12/26 17:35:09;;;;;;;;;;;;;;;;;;;;;
2023/12/26 18:04:13;;;;;;;13.73;7.47;;;;;;;;;;4803481;29;20489;-82
2023/12/26 20:16:39;;;;;;;10.02;3.35;;;;;;;;;;3129389;24;20375;-81
2023/12/26 20:19:12;;;;;;;9.40;3.55;;;;;;;;;;4803922;29;20516;-80
